Main page
METAR-TAF:

METAR-TAF

Airports :

Warsaw Chopin Airport

Warsaw, Poland

latitude: 52-10N, longitude: 020-58E, elevation: 106 m

Current weather observation

The report was made 35 minutes ago, at 20:30 UTC
Wind 6 kt from the East/Southeast
Temperature 7°C
Humidity 93%
Pressure 1024 hPa
Visibility: 7000 m

METAR: EPWA 282030Z 12006KT 7000 NSC 07/06 Q1024 NOSIG

Time: 23:05 (21:05 UTC)

Forecast

The report was made 35 minutes ago, at 20:30 UTC
Forecast valid from 28 at 21 UTC to 29 at 21 UTC
Wind 4 kt from the Southeast
Visibility 10 km or more
no clouds below 1500 m and no cumulonimbus
Probability 40%
from 28 at 21 UTC to 29 at 06 UTC
Visibility: 4000 m
mist

TAF: EPWA 282030Z 2821/2921 13004KT CAVOK PROB40 2821/2906 4000 BR

Weather observations and forecasts of more than 4000 airports (METAR and TAF reports).

The available stations are represented by yellow and red dots on the map.

Hover mouse over dot to see the name of the station.

Then click to see weather observations and forecasts.

To change the map : click on the green buttons with a black cross to zoom in, on the green button with a dash to zoom out, or on the green arrows for adjacent maps.


METAR-TAF: